Time;durP1;ratioP1;P1;durP2;ratioP2;P2;SDS_P1;SDS_P2;PMS_P1;PMS_P2;Temp;Humidity;BMP_temperature;BMP_pressure;BME280_temperature;BME280_humidity;BME280_pressure;Samples;Min_cycle;Max_cycle;Signal;HPM_P1;HPM_P2
2022/08/23 00:01:17;;;;;;;9.30;5.03;;;18.60;99.90;;;;;;5067249;28;20139;-83
2022/08/23 00:03:43;;;;;;;11.55;5.15;;;18.60;99.90;;;;;;5067044;28;20027;-84
2022/08/23 00:06:09;;;;;;;10.88;5.90;;;18.60;99.90;;;;;;5066845;28;20028;-84
2022/08/23 00:08:36;;;;;;;11.48;5.93;;;18.50;99.90;;;;;;5067077;28;20093;-84
2022/08/23 00:11:02;;;;;;;8.23;5.93;;;18.50;99.90;;;;;;5066061;28;20029;-84
2022/08/23 00:13:28;;;;;;;10.75;6.28;;;18.50;99.90;;;;;;5068268;28;20100;-84
2022/08/23 00:15:54;;;;;;;9.38;5.47;;;18.50;99.90;;;;;;5068737;28;20055;-83
2022/08/23 00:18:20;;;;;;;8.80;5.68;;;18.60;99.90;;;;;;5068726;28;20109;-82
2022/08/23 00:20:47;;;;;;;9.30;6.43;;;18.50;99.90;;;;;;5067166;28;20090;-83
2022/08/23 00:23:12;;;;;;;10.70;5.60;;;18.60;99.90;;;;;;5068572;28;20024;-82
2022/08/23 00:25:38;;;;;;;8.82;4.90;;;18.50;99.90;;;;;;5067548;28;20116;-82
2022/08/23 00:28:04;;;;;;;13.27;5.18;;;18.50;99.90;;;;;;5068538;28;20495;-82
2022/08/23 00:30:30;;;;;;;10.57;5.38;;;18.40;99.90;;;;;;5069173;28;20040;-84
2022/08/23 00:32:56;;;;;;;8.73;5.25;;;18.40;99.90;;;;;;5068926;28;20024;-85
2022/08/23 00:35:23;;;;;;;9.93;5.90;;;18.30;99.90;;;;;;5068354;28;20207;-84
2022/08/23 00:37:48;;;;;;;14.40;5.95;;;18.30;99.90;;;;;;5069827;28;20096;-83
2022/08/23 00:40:16;;;;;;;13.00;5.82;;;18.40;99.90;;;;;;5068162;28;20548;-81
2022/08/23 00:48:46;;;;;;;8.90;6.35;;;18.40;99.90;;;;;;5067849;28;20044;-83
2022/08/23 00:51:19;;;;;;;8.80;6.13;;;18.40;99.90;;;;;;5066975;28;20024;-82
2022/08/23 00:53:52;;;;;;;11.73;6.40;;;18.40;99.90;;;;;;5066482;28;20033;-82
2022/08/23 00:56:19;;;;;;;10.18;6.50;;;18.40;99.90;;;;;;5081318;28;20062;-81
2022/08/23 00:58:45;;;;;;;9.57;5.78;;;18.40;99.90;;;;;;5086450;28;20024;-82
2022/08/23 01:01:12;;;;;;;9.80;6.68;;;18.50;99.90;;;;;;5086025;28;20385;-81
2022/08/23 01:03:41;;;;;;;9.52;6.15;;;18.50;99.90;;;;;;5076664;28;20050;-81
2022/08/23 01:06:15;;;;;;;12.15;6.50;;;18.50;99.90;;;;;;5065661;28;20032;-82
2022/08/23 01:08:47;;;;;;;13.80;6.50;;;18.50;99.90;;;;;;5067205;28;20025;-83
2022/08/23 01:11:20;;;;;;;12.23;6.63;;;18.50;99.90;;;;;;5067383;28;20062;-83
2022/08/23 01:13:57;;;;;;;11.23;6.63;;;18.50;99.90;;;;;;5076755;28;20062;-84
2022/08/23 01:16:52;;;;;;;32.40;7.90;;;18.50;99.90;;;;;;5066775;28;20065;-81
2022/08/23 01:19:37;;;;;;;13.73;7.78;;;18.50;99.90;;;;;;5084157;28;20489;-83
2022/08/23 01:22:21;;;;;;;9.70;7.07;;;18.50;99.90;;;;;;5084512;28;20029;-83
2022/08/23 01:24:47;;;;;;;11.95;7.43;;;18.50;99.90;;;;;;5072072;28;20108;-82
2022/08/23 01:27:13;;;;;;;11.80;7.47;;;18.50;99.90;;;;;;5070931;28;20024;-84
2022/08/23 01:29:40;;;;;;;12.02;7.13;;;18.50;99.90;;;;;;5072138;28;20020;-85
2022/08/23 01:32:07;;;;;;;12.55;7.47;;;18.60;99.90;;;;;;5087840;28;20081;-81
2022/08/23 01:34:33;;;;;;;12.90;8.35;;;18.50;99.90;;;;;;5088127;28;20028;-83
2022/08/23 01:37:00;;;;;;;9.98;7.55;;;18.60;99.90;;;;;;5072559;28;20025;-84
2022/08/23 01:39:26;;;;;;;10.50;7.40;;;18.50;99.90;;;;;;5071530;28;20032;-85
2022/08/23 01:41:51;;;;;;;15.27;8.48;;;18.50;99.90;;;;;;5072543;28;20032;-84
2022/08/23 01:44:17;;;;;;;13.57;9.25;;;18.50;99.90;;;;;;5071727;28;20032;-83
2022/08/23 01:46:45;;;;;;;11.48;8.10;;;18.50;99.90;;;;;;5071719;28;20021;-83
2022/08/23 01:49:11;;;;;;;14.88;9.80;;;18.60;99.90;;;;;;5079739;28;20047;-83
2022/08/23 01:51:37;;;;;;;12.63;8.68;;;18.60;99.90;;;;;;5092798;28;20085;-84
2022/08/23 01:54:04;;;;;;;11.55;8.13;;;18.60;99.90;;;;;;5091970;28;20032;-83
2022/08/23 01:56:31;;;;;;;19.52;8.73;;;18.60;99.90;;;;;;5088722;28;20111;-84
2022/08/23 01:58:57;;;;;;;12.48;9.23;;;18.60;99.90;;;;;;5071425;28;20024;-84
2022/08/23 02:01:23;;;;;;;12.43;8.80;;;18.60;99.90;;;;;;5071625;28;20035;-84
2022/08/23 02:03:49;;;;;;;17.85;10.45;;;18.60;99.90;;;;;;5072708;28;20039;-84
2022/08/23 02:06:14;;;;;;;11.68;8.98;;;18.60;99.90;;;;;;5072454;28;20071;-84
2022/08/23 02:11:25;;;;;;;16.40;9.00;;;18.60;99.90;;;;;;5072816;28;20046;-84
2022/08/23 02:13:53;;;;;;;17.55;9.98;;;18.60;99.90;;;;;;5070267;28;20044;-84
2022/08/23 02:16:32;;;;;;;17.50;10.15;;;18.60;99.90;;;;;;5070333;28;20025;-83
2022/08/23 02:19:01;;;;;;;14.85;9.55;;;18.60;99.90;;;;;;5068569;28;20029;-85
2022/08/23 02:21:30;;;;;;;18.00;10.90;;;18.60;99.90;;;;;;5068118;28;20524;-83
2022/08/23 02:23:57;;;;;;;15.43;11.35;;;18.60;99.90;;;;;;5069825;28;20056;-82
2022/08/23 02:26:23;;;;;;;19.50;10.98;;;18.60;99.90;;;;;;5067640;28;20428;-81
2022/08/23 02:28:52;;;;;;;18.83;11.13;;;18.60;99.90;;;;;;5069869;28;20025;-82
2022/08/23 02:31:19;;;;;;;22.23;11.30;;;18.60;99.90;;;;;;5069496;28;20674;-82
2022/08/23 02:33:45;;;;;;;21.45;10.98;;;18.60;99.90;;;;;;5068430;28;20127;-83
2022/08/23 02:36:11;;;;;;;16.98;10.88;;;18.60;99.90;;;;;;5068684;28;20112;-82
2022/08/23 02:38:38;;;;;;;23.85;12.10;;;18.60;99.90;;;;;;5069791;28;20501;-81
2022/08/23 02:41:03;;;;;;;24.77;12.70;;;18.60;99.90;;;;;;5069354;28;20028;-83
2022/08/23 02:43:29;;;;;;;15.75;10.05;;;18.60;99.90;;;;;;5068107;28;20034;-81
2022/08/23 02:45:55;;;;;;;15.48;10.60;;;18.60;99.90;;;;;;5068108;28;20028;-81
2022/08/23 02:48:21;;;;;;;21.48;10.73;;;18.60;99.90;;;;;;5068041;28;20067;-83
2022/08/23 02:50:48;;;;;;;16.20;9.77;;;18.60;99.90;;;;;;5068439;28;20164;-81
2022/08/23 02:53:15;;;;;;;17.85;9.85;;;18.60;99.90;;;;;;5068985;28;20547;-83
2022/08/23 02:55:44;;;;;;;11.43;8.65;;;18.60;99.90;;;;;;5069035;28;20244;-82
2022/08/23 02:58:09;;;;;;;16.27;9.48;;;18.60;99.90;;;;;;5072663;28;20078;-83
2022/08/23 03:00:37;;;;;;;13.68;8.73;;;18.60;99.90;;;;;;5069943;28;20025;-83
2022/08/23 03:03:03;;;;;;;17.20;9.65;;;18.60;99.90;;;;;;5069656;28;20668;-83
2022/08/23 03:05:30;;;;;;;13.32;8.68;;;18.60;99.90;;;;;;5070227;28;20024;-83
2022/08/23 03:07:56;;;;;;;15.73;8.23;;;18.60;99.90;;;;;;5069991;28;20033;-84
2022/08/23 03:10:21;;;;;;;17.00;9.68;;;18.60;99.90;;;;;;5069449;28;20094;-83
2022/08/23 03:12:47;;;;;;;15.35;9.20;;;18.70;99.90;;;;;;5069949;28;20508;-83
2022/08/23 03:15:13;;;;;;;15.10;9.45;;;18.60;99.90;;;;;;5069837;28;20056;-83
2022/08/23 03:17:38;;;;;;;15.40;9.88;;;18.60;99.90;;;;;;5068737;28;20043;-83
2022/08/23 03:20:05;;;;;;;16.83;10.02;;;18.70;99.90;;;;;;5069229;28;20394;-83
2022/08/23 03:22:31;;;;;;;15.15;10.23;;;18.60;99.90;;;;;;5070225;28;20028;-83
2022/08/23 03:24:56;;;;;;;17.67;11.50;;;18.60;99.90;;;;;;5068814;28;20044;-83
2022/08/23 03:27:22;;;;;;;21.77;13.82;;;18.70;99.90;;;;;;5070787;28;20572;-83
2022/08/23 03:29:48;;;;;;;18.20;12.10;;;18.70;99.90;;;;;;5068767;28;20644;-83
2022/08/23 03:32:13;;;;;;;25.08;14.38;;;18.70;99.90;;;;;;5069616;28;20028;-82
2022/08/23 03:34:39;;;;;;;22.05;13.18;;;18.80;99.90;;;;;;5070198;28;20508;-83
2022/08/23 03:37:05;;;;;;;18.35;11.00;;;18.80;99.90;;;;;;5069234;28;20016;-82
2022/08/23 03:39:30;;;;;;;18.33;12.27;;;18.80;99.90;;;;;;5070330;28;20036;-83
2022/08/23 03:41:56;;;;;;;18.98;11.25;;;18.70;99.90;;;;;;5085231;28;20086;-85
2022/08/23 03:44:22;;;;;;;19.73;10.80;;;18.80;99.90;;;;;;5089489;28;20469;-83
2022/08/23 03:46:47;;;;;;;14.68;10.52;;;18.80;99.90;;;;;;5088664;28;20023;-85
2022/08/23 03:49:13;;;;;;;16.13;10.20;;;18.80;99.90;;;;;;5079857;28;20052;-84
2022/08/23 03:51:39;;;;;;;17.63;9.75;;;18.80;99.90;;;;;;5068836;28;20107;-84
2022/08/23 03:54:04;;;;;;;14.38;8.93;;;18.70;99.90;;;;;;5069720;28;20036;-84
2022/08/23 03:56:36;;;;;;;20.25;9.50;;;18.70;99.90;;;;;;5068987;28;20476;-84
2022/08/23 03:59:07;;;;;;;14.50;8.52;;;18.70;99.90;;;;;;5069912;28;20058;-83
2022/08/23 04:01:32;;;;;;;22.50;10.00;;;18.70;99.90;;;;;;5068582;28;20036;-85
2022/08/23 04:04:01;;;;;;;19.50;9.27;;;18.70;99.90;;;;;;5069933;28;20042;-86
2022/08/23 04:06:27;;;;;;;18.92;9.75;;;18.70;99.90;;;;;;5069925;28;20068;-88
2022/08/23 04:08:53;;;;;;;12.95;9.55;;;18.80;99.90;;;;;;5068188;28;20029;-83
2022/08/23 04:11:20;;;;;;;14.30;9.85;;;18.80;99.90;;;;;;5069057;28;20028;-83
2022/08/23 04:13:46;;;;;;;14.40;8.88;;;18.90;99.90;;;;;;5067436;28;20178;-84
2022/08/23 04:16:12;;;;;;;16.02;9.23;;;18.90;99.90;;;;;;5065930;28;20552;-82
2022/08/23 04:18:38;;;;;;;10.82;7.63;;;18.90;99.90;;;;;;5066678;28;20124;-81
2022/08/23 04:21:09;;;;;;;14.43;8.18;;;18.90;99.90;;;;;;5066520;28;20135;-81
2022/08/23 04:23:35;;;;;;;20.10;8.95;;;19.00;99.90;;;;;;5066488;28;20016;-81
2022/08/23 04:26:01;;;;;;;14.00;8.38;;;19.00;99.90;;;;;;5067367;28;20037;-83
2022/08/23 04:28:27;;;;;;;12.27;8.20;;;19.10;99.90;;;;;;5068079;28;20135;-82
2022/08/23 04:30:52;;;;;;;12.52;7.40;;;19.10;99.90;;;;;;5066487;28;20101;-84
2022/08/23 04:33:18;;;;;;;10.38;6.72;;;19.20;99.90;;;;;;5066156;28;20106;-83
2022/08/23 04:35:44;;;;;;;12.80;8.18;;;19.30;99.90;;;;;;5066923;28;20039;-83
2022/08/23 04:38:11;;;;;;;14.25;8.05;;;19.40;99.90;;;;;;5067315;28;20021;-83
2022/08/23 04:43:20;;;;;;;10.38;7.03;;;19.50;99.90;;;;;;5067282;28;20492;-82
2022/08/23 04:45:46;;;;;;;11.18;7.03;;;19.60;99.90;;;;;;5066100;28;20025;-83
2022/08/23 04:48:12;;;;;;;10.98;6.13;;;19.60;99.90;;;;;;5066884;28;20039;-85
2022/08/23 04:50:39;;;;;;;15.27;6.85;;;19.70;99.90;;;;;;5088211;28;20077;-84
2022/08/23 04:53:06;;;;;;;10.27;5.50;;;19.80;99.90;;;;;;5085744;28;20039;-83
2022/08/23 04:55:31;;;;;;;10.48;6.57;;;19.90;99.90;;;;;;5085751;28;20454;-82
2022/08/23 04:57:57;;;;;;;12.48;6.82;;;20.00;99.90;;;;;;5074855;28;20143;-82
2022/08/23 05:00:22;;;;;;;11.75;6.45;;;20.10;99.90;;;;;;5069386;28;20032;-82
2022/08/23 05:02:48;;;;;;;10.30;7.47;;;20.20;99.90;;;;;;5069443;28;20029;-83
2022/08/23 05:05:14;;;;;;;21.25;10.65;;;20.20;99.90;;;;;;5069182;28;20039;-81
2022/08/23 05:07:40;;;;;;;18.40;12.07;;;20.20;99.90;;;;;;5068398;28;20020;-81
2022/08/23 05:10:09;;;;;;;20.40;12.93;;;20.20;99.90;;;;;;5069994;28;20477;-81
2022/08/23 05:12:34;;;;;;;18.67;10.40;;;20.20;99.90;;;;;;5068846;28;20024;-81
2022/08/23 05:15:00;;;;;;;16.33;11.07;;;20.10;99.90;;;;;;5068396;28;20570;-81
2022/08/23 05:17:26;;;;;;;22.73;12.23;;;20.10;99.90;;;;;;5067964;28;20762;-81
2022/08/23 05:19:52;;;;;;;12.70;9.25;;;20.10;99.90;;;;;;5069054;28;20082;-82
2022/08/23 05:22:18;;;;;;;16.10;9.63;;;20.00;99.90;;;;;;5068486;28;20388;-82
2022/08/23 05:24:43;;;;;;;16.77;8.73;;;20.00;99.90;;;;;;5070343;28;20264;-82
2022/08/23 05:27:10;;;;;;;10.93;7.28;;;19.90;99.90;;;;;;5069955;28;20089;-82
2022/08/23 05:29:35;;;;;;;11.35;6.30;;;19.90;99.90;;;;;;5069122;28;20039;-82
2022/08/23 05:32:01;;;;;;;14.52;7.68;;;19.90;99.90;;;;;;5067877;28;20405;-81
2022/08/23 05:34:27;;;;;;;11.73;6.40;;;20.00;99.90;;;;;;5068485;28;20036;-82
2022/08/23 05:36:53;;;;;;;13.27;6.45;;;20.00;99.90;;;;;;5068616;28;20500;-83
2022/08/23 05:39:19;;;;;;;9.10;5.75;;;20.00;99.90;;;;;;5069530;28;20025;-81
2022/08/23 05:41:45;;;;;;;5.15;4.53;;;20.10;99.90;;;;;;5070085;28;20095;-81
2022/08/23 05:44:11;;;;;;;7.15;3.95;;;20.40;99.90;;;;;;5068315;28;20035;-81
2022/08/23 05:46:37;;;;;;;7.43;4.50;;;20.60;99.90;;;;;;5068623;28;20063;-81
2022/08/23 05:49:03;;;;;;;12.23;4.50;;;20.90;99.90;;;;;;5067739;28;20410;-81
2022/08/23 05:51:32;;;;;;;6.20;4.03;;;21.10;99.90;;;;;;5068526;28;20029;-82
2022/08/23 05:54:06;;;;;;;6.53;3.67;;;21.20;99.90;;;;;;5068783;28;20067;-82
2022/08/23 05:56:37;;;;;;;7.88;3.75;;;21.20;99.90;;;;;;5068067;28;20032;-83
2022/08/23 05:59:07;;;;;;;6.80;4.10;;;21.30;99.90;;;;;;5067866;28;20051;-82
2022/08/23 06:01:34;;;;;;;9.55;4.20;;;21.20;99.90;;;;;;5067570;28;20036;-81
2022/08/23 06:04:01;;;;;;;9.38;3.70;;;21.30;99.90;;;;;;5067419;28;20516;-82
2022/08/23 06:06:27;;;;;;;6.60;3.80;;;21.30;99.90;;;;;;5068101;28;20028;-81
2022/08/23 06:08:53;;;;;;;8.05;3.03;;;21.30;99.90;;;;;;5067016;28;20073;-81
2022/08/23 06:11:22;;;;;;;6.97;5.35;;;21.30;99.90;;;;;;5067578;28;20119;-82
2022/08/23 06:13:50;;;;;;;8.05;4.18;;;21.10;99.90;;;;;;5067662;28;20116;-82
2022/08/23 06:16:22;;;;;;;8.15;4.68;;;21.20;99.90;;;;;;5068683;28;20071;-82
2022/08/23 06:18:49;;;;;;;7.93;3.75;;;21.40;99.90;;;;;;5067236;28;20151;-81
2022/08/23 06:21:15;;;;;;;6.88;4.53;;;21.60;99.90;;;;;;5067865;28;20040;-81
2022/08/23 06:23:41;;;;;;;6.57;4.60;;;21.80;99.90;;;;;;5067253;28;20048;-82
2022/08/23 06:26:12;;;;;;;8.60;4.50;;;22.10;99.90;;;;;;5067559;28;20024;-82
2022/08/23 06:28:38;;;;;;;9.70;5.40;;;22.00;99.90;;;;;;5067098;28;20025;-81
2022/08/23 06:31:04;;;;;;;9.35;5.82;;;22.00;99.90;;;;;;5067268;28;20052;-81
2022/08/23 06:33:29;;;;;;;8.65;5.72;;;22.10;99.90;;;;;;5068131;28;20048;-81
2022/08/23 06:36:08;;;;;;;10.00;6.43;;;22.10;99.90;;;;;;5067224;28;20399;-82
2022/08/23 06:38:34;;;;;;;10.85;6.93;;;22.10;99.90;;;;;;5068675;28;20021;-81
2022/08/23 06:41:03;;;;;;;8.98;5.60;;;22.10;99.90;;;;;;5067868;28;20108;-81
2022/08/23 06:43:29;;;;;;;15.15;5.32;;;22.00;99.90;;;;;;5067331;28;20028;-81
2022/08/23 06:46:12;;;;;;;7.95;4.95;;;22.00;99.90;;;;;;5067240;28;20089;-82
2022/08/23 06:48:37;;;;;;;11.05;4.57;;;22.00;99.90;;;;;;5067882;28;20024;-82
2022/08/23 06:51:13;;;;;;;8.00;6.18;;;22.10;99.90;;;;;;5066999;28;20036;-81
2022/08/23 06:53:38;;;;;;;12.15;8.20;;;22.30;99.90;;;;;;5066948;28;20585;-82
2022/08/23 06:56:05;;;;;;;15.90;10.32;;;22.30;99.90;;;;;;5068392;28;20112;-81
2022/08/23 06:58:31;;;;;;;19.13;13.52;;;22.40;99.90;;;;;;5065903;28;20406;-81
2022/08/23 07:01:09;;;;;;;14.52;9.80;;;22.40;99.90;;;;;;5066552;28;20085;-81
2022/08/23 07:03:34;;;;;;;13.73;7.63;;;22.60;99.90;;;;;;5067658;28;20032;-82
2022/08/23 07:06:00;;;;;;;9.95;7.95;;;22.60;99.90;;;;;;5066176;28;20477;-82
2022/08/23 07:08:27;;;;;;;14.60;9.15;;;22.70;99.90;;;;;;5066682;28;20058;-82
2022/08/23 07:10:55;;;;;;;9.82;7.63;;;22.90;99.90;;;;;;5068014;28;20021;-81
2022/08/23 07:13:21;;;;;;;14.18;7.50;;;23.30;99.90;;;;;;5066685;28;20039;-82
2022/08/23 07:15:47;;;;;;;12.30;6.68;;;23.70;99.90;;;;;;5066493;28;20036;-82
2022/08/23 07:18:13;;;;;;;8.20;5.88;;;24.10;99.90;;;;;;5083297;28;20028;-82
2022/08/23 07:20:38;;;;;;;6.72;5.20;;;24.50;99.90;;;;;;5085209;28;20036;-82
2022/08/23 07:23:04;;;;;;;6.65;4.78;;;24.60;99.90;;;;;;5087598;28;20056;-83
2022/08/23 07:25:31;;;;;;;9.30;5.25;;;25.00;99.90;;;;;;5075514;28;20037;-83
2022/08/23 07:27:57;;;;;;;5.93;4.38;;;25.20;99.90;;;;;;5065615;28;20025;-82
2022/08/23 07:30:23;;;;;;;6.28;4.03;;;25.20;99.90;;;;;;5067346;28;20110;-82
2022/08/23 07:32:49;;;;;;;7.68;3.20;;;25.60;99.90;;;;;;5064968;28;20039;-82
2022/08/23 07:35:14;;;;;;;7.32;2.75;;;25.80;99.90;;;;;;5066540;28;20036;-82
2022/08/23 07:37:41;;;;;;;6.35;4.72;;;25.90;99.90;;;;;;5067461;28;20024;-81
2022/08/23 07:40:07;;;;;;;9.10;4.68;;;26.00;99.90;;;;;;5057335;28;20043;-84
2022/08/23 07:42:33;;;;;;;3.70;3.00;;;26.00;99.90;;;;;;5065967;28;20028;-83
2022/08/23 07:44:58;;;;;;;7.57;2.75;;;26.20;99.90;;;;;;5066512;28;20437;-83
2022/08/23 07:47:27;;;;;;;8.90;3.33;;;26.30;99.90;;;;;;5065566;28;20033;-84
2022/08/23 07:49:54;;;;;;;5.05;2.78;;;26.30;99.90;;;;;;5079930;28;20020;-82
2022/08/23 07:52:20;;;;;;;6.97;2.55;;;26.30;99.90;;;;;;5086755;28;20032;-83
2022/08/23 07:54:45;;;;;;;7.53;3.25;;;26.20;99.90;;;;;;5085559;28;20024;-82
2022/08/23 07:57:11;;;;;;;5.32;3.30;;;26.10;99.90;;;;;;5078430;28;20028;-83
2022/08/23 07:59:37;;;;;;;8.15;3.70;;;25.90;99.90;;;;;;5066431;28;20028;-82
2022/08/23 08:02:02;;;;;;;4.18;3.40;;;25.80;99.90;;;;;;5065433;28;20036;-82
2022/08/23 08:04:28;;;;;;;7.97;4.80;;;25.60;99.90;;;;;;5067123;28;20025;-83
2022/08/23 08:06:55;;;;;;;8.40;4.78;;;25.50;99.90;;;;;;5065691;28;20655;-84
2022/08/23 08:09:21;;;;;;;7.95;5.60;;;25.50;99.90;;;;;;5067234;28;20029;-82
2022/08/23 08:11:47;;;;;;;6.18;4.50;;;25.30;99.90;;;;;;5066036;28;20024;-83
2022/08/23 08:14:16;;;;;;;6.13;4.72;;;25.30;99.90;;;;;;5066984;28;20273;-82
2022/08/23 08:16:44;;;;;;;11.93;4.50;;;25.20;99.90;;;;;;5066982;28;20029;-84
2022/08/23 08:19:14;;;;;;;6.15;4.60;;;25.10;99.90;;;;;;5073236;28;20039;-83
2022/08/23 08:21:40;;;;;;;9.90;4.00;;;25.10;99.90;;;;;;5071221;28;20025;-82
2022/08/23 08:24:09;;;;;;;8.25;3.75;;;25.40;99.90;;;;;;5068015;28;20048;-83
2022/08/23 08:26:35;;;;;;;5.63;3.35;;;25.50;99.90;;;;;;5070217;28;20382;-84
2022/08/23 08:29:01;;;;;;;10.73;3.97;;;25.40;99.90;;;;;;5067137;28;20039;-83
2022/08/23 08:31:27;;;;;;;6.82;2.92;;;25.30;99.90;;;;;;5064649;28;20045;-82
2022/08/23 08:33:53;;;;;;;7.32;3.15;;;25.20;99.90;;;;;;5065556;28;20070;-83
2022/08/23 08:36:42;;;;;;;4.72;2.80;;;25.20;99.90;;;;;;5065404;28;20028;-84
2022/08/23 08:39:12;;;;;;;4.32;2.15;;;25.20;99.90;;;;;;5064771;28;20027;-84
2022/08/23 08:41:47;;;;;;;3.50;2.03;;;25.20;99.90;;;;;;5065888;28;20032;-83
2022/08/23 08:44:34;;;;;;;3.90;1.77;;;25.20;99.90;;;;;;5065656;28;20037;-83
2022/08/23 08:47:12;;;;;;;4.57;2.33;;;25.30;99.90;;;;;;5065004;28;20032;-84
2022/08/23 08:49:53;;;;;;;6.00;3.05;;;25.30;99.90;;;;;;5077281;28;20020;-83
2022/08/23 08:52:24;;;;;;;5.50;2.50;;;25.50;99.90;;;;;;5085759;28;20032;-83
2022/08/23 08:55:01;;;;;;;4.50;2.60;;;26.40;99.90;;;;;;5085113;28;20647;-84
2022/08/23 08:57:30;;;;;;;5.43;3.90;;;27.40;99.90;;;;;;5075679;28;20032;-81
2022/08/23 09:00:04;;;;;;;6.53;4.25;;;28.50;99.90;;;;;;5082108;28;20025;-81
2022/08/23 09:02:34;;;;;;;6.40;4.85;;;29.50;99.90;;;;;;5082063;28;20024;-82
2022/08/23 09:05:03;;;;;;;6.22;4.18;;;30.00;99.90;;;;;;5064702;28;20089;-81
2022/08/23 09:07:46;;;;;;;7.22;4.30;;;30.10;99.30;;;;;;5066664;28;20036;-80
2022/08/23 09:10:15;;;;;;;6.13;4.10;;;30.10;99.10;;;;;;5064615;28;20127;-82
2022/08/23 09:13:02;;;;;;;9.00;5.00;;;30.40;97.70;;;;;;5064760;28;20036;-82
2022/08/23 09:15:52;;;;;;;7.35;5.57;;;30.90;97.30;;;;;;5064715;28;20050;-81
2022/08/23 09:18:18;;;;;;;4.80;4.15;;;31.20;96.30;;;;;;5066144;28;20416;-82
2022/08/23 09:20:47;;;;;;;7.22;5.32;;;31.50;95.20;;;;;;5064878;28;20497;-82
2022/08/23 09:23:43;;;;;;;6.63;4.40;;;31.50;94.00;;;;;;5065426;28;20111;-82
2022/08/23 09:26:29;;;;;;;7.53;3.42;;;31.30;93.90;;;;;;5057056;28;20120;-81
2022/08/23 09:28:59;;;;;;;5.07;2.50;;;30.80;93.80;;;;;;5064457;28;20032;-81
2022/08/23 09:32:03;;;;;;;4.32;2.88;;;30.40;94.40;;;;;;5065248;28;20390;-82
2022/08/23 09:34:29;;;;;;;8.23;3.78;;;30.40;95.00;;;;;;5061426;28;20045;-81
2022/08/23 09:37:11;;;;;;;5.72;3.83;;;30.30;95.20;;;;;;5064413;28;20400;-81
2022/08/23 09:39:40;;;;;;;5.93;3.65;;;30.40;94.20;;;;;;5064721;28;20028;-80
2022/08/23 09:42:28;;;;;;;4.88;3.13;;;30.70;93.30;;;;;;5064341;28;20024;-81
2022/08/23 09:44:55;;;;;;;6.13;3.10;;;31.10;90.50;;;;;;5069191;28;20025;-81
2022/08/23 09:47:33;;;;;;;6.45;2.92;;;31.00;90.90;;;;;;5061391;28;20029;-80
2022/08/23 09:50:37;;;;;;;3.88;2.38;;;31.50;91.90;;;;;;5066579;28;20025;-82
2022/08/23 09:53:08;;;;;;;4.30;2.60;;;32.20;91.60;;;;;;5010207;28;20041;-82
2022/08/23 09:55:43;;;;;;;4.50;2.65;;;32.80;90.70;;;;;;5062916;28;20056;-82
2022/08/23 09:58:37;;;;;;;4.10;3.03;;;33.70;89.00;;;;;;5068054;28;20017;-81
2022/08/23 10:01:21;;;;;;;6.30;3.13;;;34.50;82.30;;;;;;5065035;28;20050;-81
2022/08/23 10:04:16;;;;;;;7.07;2.90;;;34.60;80.20;;;;;;5067666;28;20465;-82
2022/08/23 10:06:45;;;;;;;7.95;3.50;;;34.90;80.50;;;;;;5067468;28;20068;-82
2022/08/23 10:09:31;;;;;;;5.50;2.92;;;34.80;77.90;;;;;;5068633;28;20707;-82
2022/08/23 10:11:59;;;;;;;6.05;3.38;;;34.40;73.60;;;;;;5067521;28;20040;-81
2022/08/23 10:14:28;;;;;;;5.00;2.63;;;34.20;76.30;;;;;;5068172;28;20071;-81
2022/08/23 10:17:20;;;;;;;4.28;2.88;;;34.10;76.70;;;;;;5066666;28;20028;-81
2022/08/23 10:20:05;;;;;;;6.50;2.72;;;33.80;75.90;;;;;;5068664;28;20028;-81
2022/08/23 10:22:44;;;;;;;6.45;3.50;;;33.30;76.10;;;;;;5067947;28;20039;-81
2022/08/23 10:25:35;;;;;;;6.65;3.08;;;32.70;77.30;;;;;;5067937;28;20039;-81
2022/08/23 10:31:35;;;;;;;6.77;3.13;;;31.60;79.60;;;;;;5069248;28;20168;-82
2022/08/23 10:34:11;;;;;;;5.85;3.30;;;31.30;79.70;;;;;;5068780;28;20033;-83
2022/08/23 10:36:59;;;;;;;7.45;3.85;;;31.00;82.60;;;;;;5067316;28;20090;-82
2022/08/23 10:39:27;;;;;;;5.75;3.45;;;30.80;82.20;;;;;;5067979;28;20047;-82
2022/08/23 10:42:22;;;;;;;5.10;3.35;;;30.80;83.90;;;;;;5067548;28;20355;-81
2022/08/23 10:45:04;;;;;;;7.72;3.75;;;30.90;80.70;;;;;;5067407;28;20552;-83
2022/08/23 10:47:48;;;;;;;7.10;4.40;;;30.30;80.70;;;;;;5068978;28;20021;-82
2022/08/23 10:50:19;;;;;;;3.92;3.00;;;30.00;85.10;;;;;;5067769;28;20468;-83
2022/08/23 10:53:06;;;;;;;9.57;3.97;;;29.90;84.30;;;;;;5069087;28;20028;-85
2022/08/23 10:58:26;;;;;;;4.63;3.70;;;29.90;86.00;;;;;;5069151;28;20116;-84
2022/08/23 11:00:53;;;;;;;10.10;3.92;;;29.80;86.60;;;;;;5066742;28;20098;-84
2022/08/23 11:03:27;;;;;;;6.07;3.65;;;29.80;87.50;;;;;;5066998;28;20485;-83
2022/08/23 11:06:32;;;;;;;6.28;3.33;;;29.80;85.30;;;;;;5066773;28;20054;-84
2022/08/23 11:09:03;;;;;;;6.32;3.58;;;29.70;88.40;;;;;;5067251;28;20025;-84
2022/08/23 11:12:01;;;;;;;4.47;3.30;;;29.70;87.10;;;;;;5067680;28;20040;-84
2022/08/23 11:14:37;;;;;;;3.83;3.42;;;29.70;87.90;;;;;;5066722;28;20143;-84
2022/08/23 11:17:22;;;;;;;4.85;3.63;;;29.80;86.00;;;;;;5066705;28;20459;-85
2022/08/23 11:20:00;;;;;;;7.55;3.85;;;29.80;87.10;;;;;;5067860;28;20140;-85
2022/08/23 11:22:32;;;;;;;5.32;3.10;;;29.80;84.30;;;;;;5067107;28;20116;-84
2022/08/23 11:25:24;;;;;;;3.70;2.65;;;29.50;84.80;;;;;;5067830;28;20064;-83
2022/08/23 11:28:22;;;;;;;3.85;2.83;;;29.50;87.20;;;;;;5066855;28;20036;-83
2022/08/23 11:31:09;;;;;;;4.57;3.25;;;29.20;88.70;;;;;;5066028;28;20048;-83
2022/08/23 11:34:05;;;;;;;4.55;2.78;;;29.10;88.10;;;;;;5059001;28;20068;-83
2022/08/23 11:36:33;;;;;;;5.65;3.28;;;29.20;88.30;;;;;;5061275;28;20040;-84
2022/08/23 11:39:02;;;;;;;6.75;3.00;;;29.10;87.90;;;;;;5066958;28;20044;-83
2022/08/23 11:41:52;;;;;;;6.43;3.53;;;29.10;88.80;;;;;;5066396;28;20496;-83
2022/08/23 11:44:36;;;;;;;4.30;3.28;;;29.00;89.40;;;;;;5066202;28;20143;-84
2022/08/23 11:47:06;;;;;;;5.85;3.30;;;29.10;89.70;;;;;;5066560;28;20044;-84
2022/08/23 11:50:03;;;;;;;4.07;2.85;;;29.10;90.20;;;;;;5066679;28;20028;-84
2022/08/23 11:53:00;;;;;;;7.70;3.00;;;29.30;90.60;;;;;;5066476;28;20052;-84
2022/08/23 11:55:47;;;;;;;5.93;3.13;;;29.40;90.00;;;;;;5066128;28;20485;-83
2022/08/23 11:58:12;;;;;;;5.70;3.33;;;29.30;88.10;;;;;;5067330;28;20036;-84
2022/08/23 12:00:56;;;;;;;3.95;2.95;;;29.30;90.00;;;;;;5066528;28;20028;-83
2022/08/23 12:03:33;;;;;;;7.60;2.85;;;29.10;88.80;;;;;;5066772;28;20111;-84
2022/08/23 12:06:03;;;;;;;6.03;3.70;;;29.20;89.20;;;;;;5065160;28;20035;-84
2022/08/23 12:09:00;;;;;;;4.22;3.38;;;29.20;89.30;;;;;;5067153;28;20059;-84
2022/08/23 12:11:46;;;;;;;;;;;29.20;87.60;;;;;;5067225;28;20025;-84
2022/08/23 12:14:30;;;;;;;4.50;3.28;;;29.00;84.50;;;;;;5066566;28;20102;-83
2022/08/23 12:16:57;;;;;;;5.07;3.13;;;28.80;88.80;;;;;;5068583;28;20060;-83
2022/08/23 12:19:45;;;;;;;4.28;3.22;;;28.70;89.10;;;;;;5069865;28;20017;-84
2022/08/23 12:22:17;;;;;;;7.45;3.50;;;28.70;89.30;;;;;;5068675;28;20028;-84
2022/08/23 12:24:58;;;;;;;4.88;3.25;;;28.80;90.40;;;;;;5067033;28;20020;-84
2022/08/23 12:27:35;;;;;;;5.70;3.47;;;28.90;87.70;;;;;;5066307;28;20056;-81
2022/08/23 12:30:06;;;;;;;5.10;3.10;;;28.70;87.70;;;;;;5066199;28;20032;-82
2022/08/23 12:32:37;;;;;;;5.00;3.00;;;28.60;89.10;;;;;;5066247;28;20047;-82
2022/08/23 12:35:24;;;;;;;7.13;2.88;;;28.60;90.10;;;;;;5067943;28;20043;-82
2022/08/23 12:38:14;;;;;;;3.60;2.78;;;28.60;89.80;;;;;;5067008;28;20033;-83
2022/08/23 12:40:43;;;;;;;3.90;2.40;;;28.70;91.10;;;;;;5066553;28;20027;-82
2022/08/23 12:43:21;;;;;;;5.25;2.72;;;28.70;91.20;;;;;;5066428;28;20334;-82
2022/08/23 12:45:53;;;;;;;4.10;2.60;;;28.80;91.30;;;;;;5067760;28;20030;-83
2022/08/23 12:48:23;;;;;;;7.82;3.42;;;28.80;91.20;;;;;;5066045;28;20029;-82
2022/08/23 12:51:09;;;;;;;4.70;2.60;;;28.90;91.60;;;;;;5065749;28;20024;-82
2022/08/23 12:53:41;;;;;;;3.65;2.53;;;28.80;90.90;;;;;;5066086;28;20458;-82
2022/08/23 12:56:36;;;;;;;4.75;2.30;;;28.90;90.90;;;;;;5066470;28;20489;-82
2022/08/23 12:59:06;;;;;;;3.90;2.60;;;28.90;90.70;;;;;;5052761;28;20072;-82
2022/08/23 13:01:35;;;;;;;8.00;2.70;;;28.90;90.50;;;;;;5065949;28;20028;-80
2022/08/23 13:04:07;;;;;;;5.47;3.30;;;28.90;90.70;;;;;;5065694;28;20028;-82
2022/08/23 13:06:40;;;;;;;13.57;2.78;;;29.00;90.50;;;;;;5066591;28;20025;-81
2022/08/23 13:09:17;;;;;;;5.32;2.80;;;29.00;89.90;;;;;;5065304;28;20095;-82
2022/08/23 13:11:44;;;;;;;9.57;2.65;;;29.00;89.80;;;;;;5066202;28;20025;-83
2022/08/23 13:14:32;;;;;;;3.50;2.30;;;29.00;90.80;;;;;;5065556;28;20513;-82
2022/08/23 13:17:24;;;;;;;5.32;2.58;;;29.00;91.00;;;;;;5065371;28;20025;-82
2022/08/23 13:20:11;;;;;;;3.30;2.40;;;29.00;90.40;;;;;;5069611;28;20029;-82